createdAt,value
2017-06-08T00:00:11.288Z,75.35
2017-06-08T00:02:44.384Z,75.12
2017-06-08T00:05:17.062Z,75.11
2017-06-08T00:07:49.543Z,74.87
2017-06-08T00:10:21.905Z,74.48
2017-06-08T00:12:54.413Z,74.58
2017-06-08T00:15:26.779Z,74.32
2017-06-08T00:17:59.100Z,74.48
2017-06-08T00:20:31.373Z,74.51
2017-06-08T00:23:03.757Z,73.93
2017-06-08T00:25:36.440Z,73.88
2017-06-08T00:28:08.432Z,73.98
2017-06-08T00:30:40.844Z,73.94
2017-06-08T00:33:13.277Z,73.87
2017-06-08T00:35:45.940Z,73.39
2017-06-08T00:38:18.000Z,73.43
2017-06-08T00:40:50.431Z,73.56
2017-06-08T00:43:22.784Z,72.74
2017-06-08T00:45:55.216Z,73.29
2017-06-08T00:48:27.488Z,72.32
2017-06-08T00:51:00.382Z,72.02
2017-06-08T00:53:32.172Z,71.06
2017-06-08T00:56:04.558Z,71.13
2017-06-08T00:58:36.905Z,71.25
2017-06-08T01:01:09.243Z,70.95
2017-06-08T01:03:41.769Z,71.23
2017-06-08T01:06:13.860Z,71.32
2017-06-08T01:08:46.122Z,71.22
2017-06-08T01:11:18.410Z,71.19
2017-06-08T01:13:50.668Z,70.84
2017-06-08T01:16:23.132Z,70.54
2017-06-08T01:18:55.437Z,70.97
2017-06-08T01:21:27.885Z,71.02
2017-06-08T01:24:00.273Z,71.41
2017-06-08T01:26:32.880Z,71.62
2017-06-08T01:29:05.198Z,71.82
2017-06-08T01:31:37.573Z,71.95
2017-06-08T01:34:09.855Z,72.32
2017-06-08T01:36:42.417Z,72.64
2017-06-08T01:39:14.808Z,72.62
2017-06-08T01:41:47.204Z,72.76
2017-06-08T01:44:19.469Z,72.59
2017-06-08T01:46:51.814Z,72.59
2017-06-08T01:49:24.099Z,72.57
2017-06-08T01:51:56.728Z,72.12
2017-06-08T01:54:29.108Z,72.17
2017-06-08T01:57:01.168Z,72.53
2017-06-08T01:59:33.825Z,71.82
2017-06-08T02:02:05.961Z,71.99
2017-06-08T02:04:38.200Z,71.85
2017-06-08T02:07:10.525Z,71.52
2017-06-08T02:09:42.966Z,71.81
2017-06-08T02:12:15.716Z,71.54
2017-06-08T02:14:47.980Z,71.63
2017-06-08T02:17:27.603Z,71.51
2017-06-08T02:19:59.461Z,71.12
2017-06-08T02:22:32.827Z,71.23
2017-06-08T02:25:05.182Z,71.25
2017-06-08T02:27:37.587Z,70.96
2017-06-08T02:30:09.928Z,70.82
2017-06-08T02:32:42.205Z,70.87
2017-06-08T02:35:14.580Z,70.44
2017-06-08T02:37:46.929Z,70.06
2017-06-08T02:40:19.308Z,70.46
2017-06-08T02:42:51.613Z,69.92
2017-06-08T02:45:24.053Z,70.16
2017-06-08T02:47:56.509Z,69.74
2017-06-08T02:50:28.803Z,69.71
2017-06-08T02:53:01.144Z,70.03
2017-06-08T02:55:33.464Z,70.10
2017-06-08T02:58:06.320Z,69.75
2017-06-08T03:00:38.276Z,69.63
2017-06-08T03:03:10.626Z,69.41
2017-06-08T03:05:43.010Z,69.35
2017-06-08T03:08:16.377Z,69.21
2017-06-08T03:10:48.733Z,69.56
2017-06-08T03:13:21.149Z,69.48
2017-06-08T03:15:53.289Z,69.46
2017-06-08T03:18:25.592Z,69.46
2017-06-08T03:20:57.945Z,69.63
2017-06-08T03:23:31.364Z,69.57
2017-06-08T03:26:03.657Z,69.29
2017-06-08T03:28:36.059Z,69.55
2017-06-08T03:31:08.439Z,69.17
2017-06-08T03:33:40.895Z,68.91
2017-06-08T03:36:13.225Z,68.38
2017-06-08T03:38:45.668Z,69.11
2017-06-08T03:41:18.521Z,68.81
2017-06-08T03:43:50.710Z,68.36
2017-06-08T03:46:22.980Z,68.80
2017-06-08T03:48:55.252Z,68.39
2017-06-08T03:51:27.608Z,68.22
2017-06-08T03:53:59.793Z,68.70
2017-06-08T03:56:32.036Z,68.56
2017-06-08T03:59:04.469Z,68.35
2017-06-08T04:01:36.640Z,68.40
2017-06-08T04:04:09.348Z,68.47
2017-06-08T04:06:41.379Z,68.77
2017-06-08T04:09:13.640Z,68.05
2017-06-08T04:11:46.281Z,68.36
2017-06-08T04:14:18.489Z,68.53
2017-06-08T04:16:50.928Z,68.21
2017-06-08T04:19:23.367Z,68.56
2017-06-08T04:21:55.593Z,68.70
2017-06-08T04:24:27.885Z,68.53
2017-06-08T04:27:00.245Z,69.30
2017-06-08T04:29:32.657Z,69.28
2017-06-08T04:32:05.305Z,69.76
2017-06-08T04:34:37.463Z,70.37
2017-06-08T04:37:09.841Z,70.31
2017-06-08T04:39:42.309Z,70.68
2017-06-08T04:42:14.664Z,70.57
2017-06-08T04:44:47.086Z,71.00
2017-06-08T04:47:19.245Z,70.40
2017-06-08T04:49:51.712Z,71.29
2017-06-08T04:52:24.163Z,71.03
2017-06-08T04:54:56.556Z,70.76
2017-06-08T04:57:28.920Z,70.72
2017-06-08T05:00:01.316Z,70.83
2017-06-08T05:02:33.664Z,71.41
2017-06-08T05:05:05.986Z,72.08
2017-06-08T05:07:38.396Z,71.13
2017-06-08T05:10:11.071Z,71.29
2017-06-08T05:12:43.429Z,70.76
2017-06-08T05:15:15.452Z,71.43
2017-06-08T05:17:47.799Z,71.74
2017-06-08T05:20:20.221Z,71.51
2017-06-08T05:22:52.453Z,71.38
2017-06-08T05:25:24.820Z,71.70
2017-06-08T05:27:57.238Z,71.45
2017-06-08T05:30:29.611Z,71.25
2017-06-08T05:33:02.060Z,71.46
2017-06-08T05:35:34.474Z,72.28
2017-06-08T05:38:06.819Z,72.93
2017-06-08T05:40:39.343Z,72.85
2017-06-08T05:43:11.665Z,72.36
2017-06-08T05:45:44.016Z,72.45
2017-06-08T05:48:16.420Z,73.21
2017-06-08T05:50:48.779Z,73.80
2017-06-08T05:53:21.216Z,74.08
2017-06-08T05:55:53.749Z,74.47
2017-06-08T05:58:26.376Z,74.93
2017-06-08T06:00:59.637Z,75.83
2017-06-08T06:03:31.981Z,75.10
2017-06-08T06:06:04.812Z,75.34
2017-06-08T06:08:36.768Z,75.83
2017-06-08T06:11:09.220Z,76.10
2017-06-08T06:13:41.685Z,75.31
2017-06-08T06:16:20.891Z,75.46
2017-06-08T06:18:53.665Z,74.81
2017-06-08T06:21:25.974Z,74.84
2017-06-08T06:23:58.226Z,75.38
2017-06-08T06:26:31.701Z,75.33
2017-06-08T06:29:04.995Z,74.77
2017-06-08T06:31:37.700Z,75.32
2017-06-08T06:34:10.085Z,75.09
2017-06-08T06:36:42.473Z,75.58
2017-06-08T06:39:14.884Z,76.30
2017-06-08T06:41:47.200Z,76.19
2017-06-08T06:44:19.577Z,76.44
2017-06-08T06:46:52.066Z,77.11
2017-06-08T06:49:24.501Z,77.68
2017-06-08T06:51:56.916Z,78.18
2017-06-08T06:54:29.164Z,80.13
2017-06-08T06:57:01.606Z,81.44
2017-06-08T06:59:34.084Z,81.95
2017-06-08T07:02:06.739Z,84.13
2017-06-08T07:04:39.148Z,85.06
2017-06-08T07:07:11.248Z,86.55
2017-06-08T07:09:43.549Z,88.09
2017-06-08T07:12:15.964Z,89.88
2017-06-08T07:14:55.249Z,90.00
2017-06-08T07:17:27.948Z,90.63
2017-06-08T07:20:00.221Z,91.40
2017-06-08T07:22:32.585Z,92.04
2017-06-08T07:25:04.890Z,92.19
2017-06-08T07:27:37.274Z,92.71
2017-06-08T07:30:09.556Z,92.78
2017-06-08T07:32:41.987Z,93.24
2017-06-08T07:35:21.294Z,93.22
2017-06-08T07:37:53.761Z,92.46
2017-06-08T07:40:26.429Z,92.82
2017-06-08T07:42:58.462Z,91.54
2017-06-08T07:45:30.856Z,91.17
2017-06-08T07:48:04.151Z,89.32
2017-06-08T07:50:36.513Z,90.05
2017-06-08T07:53:08.844Z,90.36
2017-06-08T07:55:41.065Z,90.06
2017-06-08T07:58:13.433Z,90.07
2017-06-08T08:00:58.079Z,90.44
2017-06-08T08:03:30.364Z,89.47
2017-06-08T08:06:02.713Z,89.60
2017-06-08T08:08:35.116Z,89.16
2017-06-08T08:11:07.467Z,87.88
2017-06-08T08:13:39.803Z,87.56
2017-06-08T08:16:12.432Z,100.00
2017-06-08T08:18:44.425Z,100.00
2017-06-08T08:21:16.777Z,100.00
2017-06-08T08:23:49.379Z,100.00
2017-06-08T08:26:21.420Z,100.00
2017-06-08T08:28:53.933Z,100.00
2017-06-08T08:31:33.338Z,100.00
2017-06-08T08:34:05.836Z,100.00
2017-06-08T08:36:38.579Z,100.00
2017-06-08T08:39:10.692Z,100.00
2017-06-08T08:41:43.036Z,100.00
2017-06-08T08:44:15.572Z,100.00
2017-06-08T08:46:48.190Z,100.00
2017-06-08T08:49:20.573Z,100.00
2017-06-08T08:51:52.908Z,100.00
2017-06-08T08:54:25.264Z,100.00
2017-06-08T08:56:57.497Z,100.00
2017-06-08T08:59:29.861Z,100.00
2017-06-08T09:02:02.137Z,100.00
2017-06-08T09:04:34.544Z,100.00
2017-06-08T09:07:06.880Z,100.00
2017-06-08T09:09:39.189Z,100.00
2017-06-08T09:12:11.595Z,100.00
2017-06-08T09:14:43.972Z,100.00
2017-06-08T09:17:16.372Z,100.00
2017-06-08T09:19:48.731Z,100.00
2017-06-08T09:22:21.113Z,100.00
2017-06-08T09:24:53.813Z,100.00
2017-06-08T09:27:25.869Z,100.00
2017-06-08T09:29:59.301Z,100.00
2017-06-08T09:32:31.694Z,100.00
2017-06-08T09:35:04.117Z,100.00
2017-06-08T09:37:36.560Z,100.00
2017-06-08T09:40:10.805Z,100.00
2017-06-08T09:42:43.392Z,100.00
2017-06-08T09:45:16.768Z,100.00
2017-06-08T09:47:49.604Z,100.00
2017-06-08T09:50:21.660Z,100.00
2017-06-08T09:52:54.000Z,100.00
2017-06-08T09:55:26.440Z,100.00
2017-06-08T09:57:58.765Z,100.00
2017-06-08T10:00:31.741Z,100.00
2017-06-08T10:03:03.792Z,100.00
2017-06-08T10:05:36.177Z,100.00
2017-06-08T10:08:08.620Z,100.00
2017-06-08T10:10:42.023Z,100.00
2017-06-08T10:13:15.392Z,100.00
2017-06-08T10:15:48.013Z,100.00
2017-06-08T10:18:20.436Z,100.00
2017-06-08T10:20:52.917Z,100.00
2017-06-08T10:23:25.236Z,100.00
2017-06-08T10:25:57.649Z,100.00
2017-06-08T10:28:30.000Z,100.00
2017-06-08T10:31:02.444Z,100.00
2017-06-08T10:33:34.717Z,100.00
2017-06-08T10:36:07.292Z,100.00
2017-06-08T10:38:39.604Z,100.00
2017-06-08T10:41:12.190Z,100.00
2017-06-08T10:43:44.534Z,100.00
2017-06-08T10:46:17.312Z,100.00
2017-06-08T10:48:49.441Z,100.00
2017-06-08T10:51:21.533Z,100.00
2017-06-08T10:53:53.775Z,100.00
2017-06-08T10:56:26.249Z,100.00
2017-06-08T10:58:58.981Z,100.00
2017-06-08T11:01:30.944Z,100.00
2017-06-08T11:04:03.637Z,100.00
2017-06-08T11:06:35.736Z,100.00
2017-06-08T11:09:08.137Z,100.00
2017-06-08T11:11:40.581Z,100.00
2017-06-08T11:14:13.157Z,100.00
2017-06-08T11:16:45.301Z,53.05
2017-06-08T11:19:17.683Z,54.93
2017-06-08T11:21:50.278Z,54.81
2017-06-08T11:24:23.312Z,100.00
2017-06-08T11:26:55.892Z,100.00
2017-06-08T11:29:28.315Z,100.00
2017-06-08T11:32:00.730Z,49.71
2017-06-08T11:34:33.145Z,100.00
2017-06-08T11:37:05.804Z,100.00
2017-06-08T11:39:37.894Z,53.74
2017-06-08T11:42:10.363Z,53.36
2017-06-08T11:44:42.933Z,53.07
2017-06-08T11:47:15.458Z,52.39
2017-06-08T11:49:54.813Z,52.22
2017-06-08T11:52:27.233Z,50.13
2017-06-08T11:54:59.734Z,48.43
2017-06-08T11:57:32.897Z,48.88
2017-06-08T12:00:05.584Z,48.72
2017-06-08T12:02:38.034Z,47.71
2017-06-08T12:05:10.569Z,47.85
2017-06-08T12:07:43.732Z,49.36
2017-06-08T12:10:16.200Z,100.00
2017-06-08T12:12:48.688Z,48.76
2017-06-08T12:15:21.039Z,49.47
2017-06-08T12:17:53.424Z,49.27
2017-06-08T12:20:25.796Z,50.86
2017-06-08T12:22:58.307Z,50.23
2017-06-08T12:25:30.653Z,51.30
2017-06-08T12:28:02.534Z,50.92
2017-06-08T12:30:35.198Z,50.66
2017-06-08T12:33:07.877Z,50.98
2017-06-08T12:35:40.016Z,100.00
2017-06-08T12:38:12.429Z,49.29
2017-06-08T12:40:44.876Z,50.72
2017-06-08T12:43:17.375Z,50.96
2017-06-08T12:45:50.086Z,50.75
2017-06-08T12:48:22.260Z,52.78
2017-06-08T12:50:54.676Z,53.41
2017-06-08T12:53:27.049Z,53.43
2017-06-08T12:55:59.420Z,54.42
2017-06-08T12:58:31.862Z,100.00
2017-06-08T13:01:04.187Z,100.00
2017-06-08T13:03:36.541Z,100.00
2017-06-08T13:06:08.829Z,100.00
2017-06-08T13:08:41.489Z,100.00
2017-06-08T13:11:13.552Z,100.00
2017-06-08T13:13:46.234Z,100.00
2017-06-08T13:16:18.405Z,100.00
2017-06-08T13:18:50.815Z,100.00
2017-06-08T13:21:23.148Z,100.00
2017-06-08T13:23:55.569Z,100.00
2017-06-08T13:26:28.029Z,100.00
2017-06-08T13:29:01.434Z,100.00
2017-06-08T13:31:33.993Z,100.00
2017-06-08T13:34:06.317Z,100.00
2017-06-08T13:36:38.756Z,100.00
2017-06-08T13:39:11.511Z,100.00
2017-06-08T13:41:43.536Z,100.00
2017-06-08T13:44:15.984Z,100.00
2017-06-08T13:46:48.401Z,100.00
2017-06-08T13:49:21.792Z,100.00
2017-06-08T13:51:54.185Z,100.00
2017-06-08T13:54:26.590Z,100.00
2017-06-08T13:56:58.929Z,100.00
2017-06-08T13:59:31.312Z,100.00
2017-06-08T14:02:03.711Z,100.00
2017-06-08T14:04:36.880Z,100.00
2017-06-08T14:07:09.436Z,100.00
2017-06-08T14:09:42.057Z,100.00
2017-06-08T14:12:14.508Z,100.00
2017-06-08T14:14:47.094Z,100.00
2017-06-08T14:17:19.381Z,100.00
2017-06-08T14:19:51.905Z,100.00
2017-06-08T14:22:24.573Z,100.00
2017-06-08T14:24:56.489Z,100.00
2017-06-08T14:27:28.923Z,100.00
2017-06-08T14:30:01.325Z,100.00
2017-06-08T14:32:34.260Z,100.00
2017-06-08T14:35:06.153Z,100.00
2017-06-08T14:37:38.543Z,100.00
2017-06-08T14:40:10.806Z,100.00
2017-06-08T14:42:43.243Z,100.00
2017-06-08T14:45:16.764Z,100.00
2017-06-08T14:47:49.136Z,100.00
2017-06-08T14:50:21.805Z,100.00
2017-06-08T14:52:53.772Z,100.00
2017-06-08T14:55:26.136Z,100.00
2017-06-08T14:57:58.453Z,100.00
2017-06-08T15:00:30.880Z,100.00
2017-06-08T15:03:03.647Z,100.00
2017-06-08T15:05:35.711Z,100.00
2017-06-08T15:08:08.040Z,100.00
2017-06-08T15:10:40.480Z,100.00
2017-06-08T15:13:12.930Z,100.00
2017-06-08T15:15:45.199Z,100.00
2017-06-08T15:18:17.748Z,100.00
2017-06-08T15:20:50.272Z,100.00
2017-06-08T15:23:22.505Z,100.00
2017-06-08T15:25:54.893Z,100.00
2017-06-08T15:28:27.226Z,100.00
2017-06-08T15:30:59.624Z,100.00
2017-06-08T15:33:32.024Z,100.00
2017-06-08T15:36:04.409Z,100.00
2017-06-08T15:38:36.920Z,100.00
2017-06-08T15:41:09.220Z,100.00
2017-06-08T15:43:41.718Z,100.00
2017-06-08T15:46:13.868Z,100.00
2017-06-08T15:48:46.113Z,100.00
2017-06-08T15:51:18.928Z,100.00
2017-06-08T15:53:51.089Z,100.00
2017-06-08T15:56:23.157Z,100.00
2017-06-08T15:58:55.477Z,100.00
2017-06-08T16:01:27.808Z,100.00
2017-06-08T16:04:00.188Z,100.00
2017-06-08T16:06:32.640Z,100.00
2017-06-08T16:09:05.125Z,100.00
2017-06-08T16:11:37.516Z,100.00
2017-06-08T16:14:09.984Z,100.00
2017-06-08T16:16:42.509Z,100.00
2017-06-08T16:19:14.908Z,100.00
2017-06-08T16:21:47.412Z,100.00
2017-06-08T16:24:19.755Z,100.00
2017-06-08T21:03:47.994Z,63.50
2017-06-08T21:06:20.153Z,63.95
2017-06-08T21:08:52.592Z,100.00
2017-06-08T21:11:25.050Z,100.00
2017-06-08T21:13:57.408Z,100.00
2017-06-08T21:16:29.824Z,100.00
2017-06-08T21:19:02.378Z,65.23
2017-06-08T21:21:34.660Z,65.46
2017-06-08T21:24:07.045Z,100.00
2017-06-08T21:26:39.367Z,65.71
2017-06-08T21:29:11.892Z,65.79
2017-06-08T21:31:44.405Z,65.98
2017-06-08T21:36:30.135Z,62.51
2017-06-08T21:39:02.080Z,63.60
2017-06-08T21:41:41.328Z,64.30
2017-06-08T21:44:13.986Z,65.02
2017-06-08T21:46:46.335Z,65.42
2017-06-08T21:49:19.031Z,66.05
2017-06-08T21:51:51.157Z,66.59
2017-06-08T21:54:23.939Z,66.86
2017-06-08T21:56:56.001Z,67.18
2017-06-08T21:59:28.501Z,67.95
2017-06-08T22:02:00.805Z,68.15
2017-06-08T22:04:33.243Z,68.32
2017-06-08T22:07:05.609Z,68.97
2017-06-08T22:09:39.085Z,69.29
2017-06-08T22:12:11.762Z,69.56
2017-06-08T22:14:44.025Z,69.71
2017-06-08T22:17:16.316Z,69.86
2017-06-08T22:19:48.653Z,69.86
2017-06-08T22:22:21.103Z,70.10
2017-06-08T22:24:53.561Z,70.40
2017-06-08T22:27:26.920Z,70.91
2017-06-08T22:29:59.244Z,70.77
2017-06-08T22:32:31.693Z,70.90
2017-06-08T22:35:04.191Z,70.73
2017-06-08T22:37:36.592Z,70.88
2017-06-08T22:40:10.066Z,70.85
2017-06-08T22:42:42.506Z,71.02
2017-06-08T22:45:16.027Z,70.76
2017-06-08T22:47:48.488Z,71.28
2017-06-08T22:50:20.819Z,70.99
2017-06-08T22:52:53.221Z,71.10
2017-06-08T22:55:25.800Z,71.16
2017-06-08T22:57:58.225Z,71.09
2017-06-08T23:00:31.544Z,71.05
2017-06-08T23:03:03.971Z,70.97
2017-06-08T23:11:32.042Z,71.36
2017-06-08T23:17:13.314Z,71.60
2017-06-08T23:19:45.872Z,72.02
2017-06-08T23:22:18.145Z,72.03
2017-06-08T23:24:50.595Z,72.12
2017-06-08T23:27:22.987Z,71.90
2017-06-08T23:29:55.488Z,72.01
2017-06-08T23:32:27.991Z,72.32
2017-06-08T23:35:00.326Z,72.19
2017-06-08T23:37:32.728Z,72.29
2017-06-08T23:40:05.139Z,72.18
2017-06-08T23:42:37.876Z,72.40
2017-06-08T23:45:09.984Z,72.28
2017-06-08T23:47:49.350Z,72.31
2017-06-08T23:50:22.296Z,72.67
2017-06-08T23:52:54.415Z,72.47
2017-06-08T23:55:27.150Z,72.30
2017-06-08T23:57:59.359Z,72.32
